Time;durP1;ratioP1;P1;durP2;ratioP2;P2;SDS_P1;SDS_P2;PMS_P1;PMS_P2;Temp;Humidity;BMP_temperature;BMP_pressure;BME280_temperature;BME280_humidity;BME280_pressure;Samples;Min_cycle;Max_cycle;Signal;HPM_P1;HPM_P2
2023/12/01 00:00:26;;;;;;;2.10;2.00;;;;;;;;;;1051618;28;20016;-73
2023/12/01 00:00:56;;;;;;;0.30;0.30;;;;;;;;;;1051820;28;20512;-73
2023/12/01 00:01:27;;;;;;;0.47;0.47;;;;;;;;;;1052289;28;20487;-73
2023/12/01 00:01:57;;;;;;;1.30;1.20;;;;;;;;;;1052341;28;20475;-73
2023/12/01 00:02:28;;;;;;;1.00;0.98;;;;;;;;;;1052249;28;20030;-73
2023/12/01 00:02:58;;;;;;;2.28;1.35;;;;;;;;;;1052324;28;20028;-73
2023/12/01 00:03:29;;;;;;;1.35;1.25;;;;;;;;;;1052425;28;20024;-73
2023/12/01 00:03:59;;;;;;;0.85;0.82;;;;;;;;;;1052297;28;20031;-73
2023/12/01 00:04:30;;;;;;;4.13;1.48;;;;;;;;;;1052342;28;20069;-73
2023/12/01 00:05:00;;;;;;;0.70;0.70;;;;;;;;;;1052595;28;20503;-73
2023/12/01 00:05:30;;;;;;;1.83;0.90;;;;;;;;;;1052005;28;20471;-73
2023/12/01 00:06:01;;;;;;;16.77;1.75;;;;;;;;;;1052205;28;20027;-73
2023/12/01 00:06:32;;;;;;;0.30;0.30;;;;;;;;;;1051875;28;20027;-73
2023/12/01 00:07:03;;;;;;;3.88;0.90;;;;;;;;;;1051694;28;20110;-73
2023/12/01 00:07:34;;;;;;;2.42;2.15;;;;;;;;;;1051966;28;20403;-73
2023/12/01 00:08:04;;;;;;;0.32;0.32;;;;;;;;;;1052032;28;20440;-73
2023/12/01 00:08:35;;;;;;;1.45;1.13;;;;;;;;;;1052203;28;20019;-73
2023/12/01 00:09:05;;;;;;;0.50;0.35;;;;;;;;;;1052386;28;20028;-73
2023/12/01 00:09:36;;;;;;;0.40;0.40;;;;;;;;;;1051865;28;20028;-73
2023/12/01 00:10:10;;;;;;;14.20;4.05;;;;;;;;;;1051945;28;20106;-73
2023/12/01 00:10:40;;;;;;;1.85;1.55;;;;;;;;;;1051846;28;20032;-73
2023/12/01 00:11:11;;;;;;;4.35;2.53;;;;;;;;;;1052077;28;20024;-73
2023/12/01 00:11:41;;;;;;;1.00;1.00;;;;;;;;;;1051685;28;20071;-73
2023/12/01 00:12:12;;;;;;;2.42;1.73;;;;;;;;;;1052176;28;20023;-73
2023/12/01 00:12:42;;;;;;;1.20;1.00;;;;;;;;;;1051801;28;20024;-73
2023/12/01 00:13:13;;;;;;;0.65;0.65;;;;;;;;;;1052171;28;20024;-73
2023/12/01 00:13:43;;;;;;;2.15;0.77;;;;;;;;;;1052139;28;20020;-73
2023/12/01 00:14:14;;;;;;;0.68;0.68;;;;;;;;;;1052467;28;20376;-73
2023/12/01 00:14:44;;;;;;;0.82;0.77;;;;;;;;;;1051997;28;20039;-73
2023/12/01 00:15:15;;;;;;;0.80;0.80;;;;;;;;;;1052372;28;20115;-73
2023/12/01 00:15:45;;;;;;;0.10;0.10;;;;;;;;;;1051847;28;20138;-73
2023/12/01 00:16:15;;;;;;;0.82;0.70;;;;;;;;;;1052270;28;20024;-73
2023/12/01 00:16:46;;;;;;;3.08;2.28;;;;;;;;;;1051633;28;20024;-73
2023/12/01 00:17:17;;;;;;;0.52;0.52;;;;;;;;;;1052133;28;20023;-73
2023/12/01 00:17:47;;;;;;;0.32;0.32;;;;;;;;;;1051645;28;20074;-73
2023/12/01 00:18:17;;;;;;;1.27;1.17;;;;;;;;;;1051904;28;20038;-73
2023/12/01 00:18:48;;;;;;;4.07;1.67;;;;;;;;;;1051839;28;20028;-73
2023/12/01 00:19:18;;;;;;;0.93;0.93;;;;;;;;;;1051896;28;20024;-73
2023/12/01 00:19:49;;;;;;;0.57;0.57;;;;;;;;;;1051862;28;20031;-73
2023/12/01 00:20:19;;;;;;;1.35;1.25;;;;;;;;;;1051883;28;20476;-73
2023/12/01 00:20:50;;;;;;;2.63;1.25;;;;;;;;;;1051713;28;21511;-73
2023/12/01 00:21:21;;;;;;;3.35;2.17;;;;;;;;;;1052204;28;20024;-73
2023/12/01 00:21:51;;;;;;;1.05;0.95;;;;;;;;;;1051563;28;20061;-73
2023/12/01 00:22:22;;;;;;;0.70;0.70;;;;;;;;;;1052294;28;20044;-73
2023/12/01 00:22:52;;;;;;;1.88;1.30;;;;;;;;;;1052004;28;20035;-73
2023/12/01 00:23:23;;;;;;;4.68;1.27;;;;;;;;;;1052544;28;20016;-73
2023/12/01 00:23:54;;;;;;;1.23;0.70;;;;;;;;;;1051651;28;20027;-73
2023/12/01 00:24:24;;;;;;;0.55;0.55;;;;;;;;;;1051790;28;20388;-73
2023/12/01 00:24:55;;;;;;;0.45;0.45;;;;;;;;;;1049881;28;20430;-73
2023/12/01 00:25:25;;;;;;;2.75;0.90;;;;;;;;;;1051972;28;20020;-73
2023/12/01 00:25:56;;;;;;;7.05;2.42;;;;;;;;;;1051655;28;20122;-73
2023/12/01 00:26:26;;;;;;;1.52;1.42;;;;;;;;;;1051679;28;20501;-73
2023/12/01 00:26:56;;;;;;;0.95;0.95;;;;;;;;;;1052002;28;20016;-73
2023/12/01 00:27:27;;;;;;;1.45;1.35;;;;;;;;;;1052218;28;20061;-73
2023/12/01 00:27:58;;;;;;;2.83;1.77;;;;;;;;;;1051859;28;20020;-73
2023/12/01 00:28:28;;;;;;;0.93;0.88;;;;;;;;;;1051723;28;20020;-73
2023/12/01 00:28:59;;;;;;;0.98;0.63;;;;;;;;;;1051737;28;20012;-73
2023/12/01 00:29:29;;;;;;;1.45;1.35;;;;;;;;;;1047638;28;20020;-73
2023/12/01 00:29:59;;;;;;;1.02;1.02;;;;;;;;;;1051779;28;20024;-73
2023/12/01 00:30:30;;;;;;;0.10;0.10;;;;;;;;;;1051799;28;20024;-73
2023/12/01 00:31:01;;;;;;;5.95;2.72;;;;;;;;;;1047468;28;20029;-73
2023/12/01 00:31:31;;;;;;;1.73;1.60;;;;;;;;;;1051674;28;20024;-73
2023/12/01 00:32:02;;;;;;;3.00;0.60;;;;;;;;;;1047351;28;20032;-73
2023/12/01 00:32:32;;;;;;;1.58;0.93;;;;;;;;;;1047563;28;20427;-73
2023/12/01 00:33:03;;;;;;;1.67;1.58;;;;;;;;;;1051864;28;20174;-73
2023/12/01 00:33:33;;;;;;;1.15;0.73;;;;;;;;;;1051802;28;20043;-73
2023/12/01 00:34:04;;;;;;;0.93;0.93;;;;;;;;;;1052028;28;20065;-73
2023/12/01 00:34:34;;;;;;;2.30;2.10;;;;;;;;;;1051934;28;20011;-73
2023/12/01 00:35:05;;;;;;;0.77;0.63;;;;;;;;;;1052020;28;20016;-73
2023/12/01 00:35:35;;;;;;;0.65;0.65;;;;;;;;;;1052150;28;20028;-73
2023/12/01 00:36:06;;;;;;;1.40;1.13;;;;;;;;;;1052133;28;20077;-73
2023/12/01 00:36:36;;;;;;;0.85;0.85;;;;;;;;;;1051628;28;20019;-73
2023/12/01 00:37:08;;;;;;;0.40;0.40;;;;;;;;;;1051695;28;20077;-73
2023/12/01 00:37:38;;;;;;;0.63;0.63;;;;;;;;;;1051816;28;20024;-73
2023/12/01 00:38:08;;;;;;;0.85;0.85;;;;;;;;;;1051991;28;20574;-73
2023/12/01 00:38:39;;;;;;;0.57;0.57;;;;;;;;;;1051569;28;20525;-73
2023/12/01 00:39:10;;;;;;;0.15;0.15;;;;;;;;;;1052036;28;20065;-73
2023/12/01 00:39:40;;;;;;;0.82;0.82;;;;;;;;;;1051787;28;20073;-73
2023/12/01 00:40:11;;;;;;;2.35;1.55;;;;;;;;;;1051761;28;20047;-73
2023/12/01 00:40:41;;;;;;;0.20;0.20;;;;;;;;;;1050590;28;20096;-73
2023/12/01 00:41:12;;;;;;;3.95;0.95;;;;;;;;;;1052275;28;20020;-73
2023/12/01 00:41:43;;;;;;;7.80;2.25;;;;;;;;;;1051452;28;20015;-73
2023/12/01 00:42:13;;;;;;;0.77;0.77;;;;;;;;;;1049549;28;20108;-73
2023/12/01 00:42:44;;;;;;;3.55;1.40;;;;;;;;;;1049536;28;20170;-73
2023/12/01 00:43:14;;;;;;;2.55;0.88;;;;;;;;;;1048870;28;20086;-73
2023/12/01 00:43:45;;;;;;;0.68;0.68;;;;;;;;;;1051587;28;20540;-73
2023/12/01 00:44:16;;;;;;;0.82;0.55;;;;;;;;;;1052131;28;20114;-73
2023/12/01 00:44:46;;;;;;;1.27;1.23;;;;;;;;;;1052032;28;20035;-73
2023/12/01 00:45:17;;;;;;;2.03;0.85;;;;;;;;;;1052264;28;20380;-73
2023/12/01 00:45:47;;;;;;;5.63;2.58;;;;;;;;;;1051940;28;20388;-73
2023/12/01 00:46:18;;;;;;;1.58;1.48;;;;;;;;;;1051631;28;20077;-73
2023/12/01 00:46:48;;;;;;;11.77;2.15;;;;;;;;;;1052012;28;20032;-73
2023/12/01 00:47:19;;;;;;;0.40;0.40;;;;;;;;;;1052238;28;20498;-73
2023/12/01 00:47:49;;;;;;;0.88;0.88;;;;;;;;;;1051991;28;20031;-73
2023/12/01 00:48:20;;;;;;;0.50;0.50;;;;;;;;;;1051600;28;20056;-73
2023/12/01 00:48:50;;;;;;;1.15;1.05;;;;;;;;;;1051656;28;20031;-74
2023/12/01 00:49:20;;;;;;;1.42;1.40;;;;;;;;;;1051985;28;20016;-73
2023/12/01 00:49:51;;;;;;;3.90;1.40;;;;;;;;;;1051717;28;20391;-73
2023/12/01 00:50:21;;;;;;;0.40;0.40;;;;;;;;;;1052149;28;20468;-73
2023/12/01 00:50:52;;;;;;;0.40;0.40;;;;;;;;;;1052013;28;20027;-73
2023/12/01 00:51:22;;;;;;;0.65;0.50;;;;;;;;;;1052134;28;20055;-73
2023/12/01 00:51:53;;;;;;;2.45;2.35;;;;;;;;;;1051673;28;20024;-73
2023/12/01 00:52:24;;;;;;;5.30;1.33;;;;;;;;;;1051272;28;20384;-73
2023/12/01 00:52:55;;;;;;;1.65;1.55;;;;;;;;;;1051272;28;20015;-73
2023/12/01 00:53:25;;;;;;;4.68;3.35;;;;;;;;;;1052106;28;20028;-73
2023/12/01 00:53:55;;;;;;;1.63;0.98;;;;;;;;;;1051427;28;20020;-73
2023/12/01 00:54:26;;;;;;;1.45;0.93;;;;;;;;;;1051160;28;20020;-73
2023/12/01 00:54:56;;;;;;;0.40;0.40;;;;;;;;;;1051193;28;20030;-73
2023/12/01 00:55:27;;;;;;;2.80;0.90;;;;;;;;;;1051769;28;20543;-73
2023/12/01 00:55:57;;;;;;;2.40;1.75;;;;;;;;;;1051787;28;20386;-73
2023/12/01 00:56:28;;;;;;;1.08;1.00;;;;;;;;;;1051733;28;20167;-73
2023/12/01 00:56:59;;;;;;;0.22;0.22;;;;;;;;;;1051909;28;20425;-73
2023/12/01 00:57:29;;;;;;;0.35;0.32;;;;;;;;;;1051899;28;20077;-73
2023/12/01 00:58:00;;;;;;;0.90;0.82;;;;;;;;;;1051832;28;20115;-73
2023/12/01 00:58:30;;;;;;;0.10;0.10;;;;;;;;;;1051658;28;20032;-73
2023/12/01 00:59:01;;;;;;;1.52;1.27;;;;;;;;;;1052031;28;20023;-73
2023/12/01 00:59:31;;;;;;;6.88;3.00;;;;;;;;;;1051852;28;20403;-73
2023/12/01 01:00:03;;;;;;;2.53;1.17;;;;;;;;;;1051745;28;20016;-73
2023/12/01 01:00:34;;;;;;;2.00;1.50;;;;;;;;;;1023793;28;20024;-73
2023/12/01 01:01:07;;;;;;;4.10;1.77;;;;;;;;;;1047412;28;20115;-73
2023/12/01 01:01:38;;;;;;;0.65;0.45;;;;;;;;;;1047359;28;20542;-73
2023/12/01 01:02:08;;;;;;;12.73;3.25;;;;;;;;;;1047946;28;20030;-73
2023/12/01 01:02:39;;;;;;;2.22;1.20;;;;;;;;;;1051568;28;20024;-73
2023/12/01 01:03:09;;;;;;;2.25;1.42;;;;;;;;;;1051659;28;20031;-73
2023/12/01 01:03:41;;;;;;;0.45;0.45;;;;;;;;;;1051611;28;20024;-73
2023/12/01 01:04:11;;;;;;;0.90;0.90;;;;;;;;;;1051463;28;20549;-73
2023/12/01 01:04:42;;;;;;;14.32;2.38;;;;;;;;;;1051464;28;20020;-73
2023/12/01 01:05:12;;;;;;;3.85;2.83;;;;;;;;;;1052246;28;20020;-73
2023/12/01 01:05:43;;;;;;;3.00;2.22;;;;;;;;;;1051731;28;20024;-73
2023/12/01 01:06:13;;;;;;;0.98;0.95;;;;;;;;;;1051594;28;20027;-73
2023/12/01 01:06:43;;;;;;;1.25;1.17;;;;;;;;;;1051729;28;20178;-73
2023/12/01 01:07:14;;;;;;;4.93;1.35;;;;;;;;;;1051493;28;20460;-73
2023/12/01 01:07:45;;;;;;;1.05;0.95;;;;;;;;;;1051356;28;20589;-73
2023/12/01 01:08:15;;;;;;;2.38;0.85;;;;;;;;;;1051813;28;20024;-73
2023/12/01 01:08:45;;;;;;;1.45;0.85;;;;;;;;;;1050441;28;20563;-73
2023/12/01 01:09:16;;;;;;;1.55;1.30;;;;;;;;;;1051641;28;20380;-73
2023/12/01 01:09:46;;;;;;;2.13;1.60;;;;;;;;;;1051439;28;20047;-73
2023/12/01 01:10:17;;;;;;;1.95;1.00;;;;;;;;;;1051289;28;20028;-73
2023/12/01 01:10:48;;;;;;;1.10;0.93;;;;;;;;;;1050376;28;20546;-73
2023/12/01 01:11:19;;;;;;;0.20;0.20;;;;;;;;;;1050482;28;20056;-73
2023/12/01 01:11:49;;;;;;;1.27;1.20;;;;;;;;;;1051559;28;20475;-73
2023/12/01 01:12:20;;;;;;;2.53;0.63;;;;;;;;;;1051844;28;20024;-73
2023/12/01 01:12:51;;;;;;;2.90;1.40;;;;;;;;;;1050681;28;20028;-73
2023/12/01 01:13:22;;;;;;;1.27;0.73;;;;;;;;;;1052051;28;20089;-73
2023/12/01 01:13:52;;;;;;;0.98;0.80;;;;;;;;;;1049536;28;20028;-73
2023/12/01 01:14:23;;;;;;;0.98;0.93;;;;;;;;;;1050887;28;20533;-73
2023/12/01 01:14:54;;;;;;;1.92;1.83;;;;;;;;;;1051360;28;20110;-73
2023/12/01 01:15:24;;;;;;;0.47;0.47;;;;;;;;;;1050792;28;20027;-73
2023/12/01 01:15:55;;;;;;;0.73;0.73;;;;;;;;;;1051386;28;20027;-73
2023/12/01 01:16:25;;;;;;;0.85;0.68;;;;;;;;;;1051079;28;20019;-73
2023/12/01 01:16:56;;;;;;;1.13;0.82;;;;;;;;;;1051099;28;20600;-73
2023/12/01 01:17:26;;;;;;;7.97;1.98;;;;;;;;;;1051101;28;20501;-73
2023/12/01 01:17:57;;;;;;;5.88;0.90;;;;;;;;;;1050963;28;20020;-73
2023/12/01 01:18:27;;;;;;;0.52;0.52;;;;;;;;;;1051239;28;20134;-73
2023/12/01 01:18:57;;;;;;;0.45;0.45;;;;;;;;;;1051448;28;20374;-73
2023/12/01 01:19:28;;;;;;;0.75;0.75;;;;;;;;;;1050904;28;20027;-73
2023/12/01 01:19:59;;;;;;;1.58;1.48;;;;;;;;;;1051003;28;20024;-73
2023/12/01 01:20:30;;;;;;;2.58;1.67;;;;;;;;;;1050653;28;20030;-73
2023/12/01 01:21:00;;;;;;;1.55;1.42;;;;;;;;;;1050459;28;20051;-73
2023/12/01 01:21:31;;;;;;;5.13;1.30;;;;;;;;;;1051136;28;20028;-73
2023/12/01 01:22:01;;;;;;;3.95;1.00;;;;;;;;;;1049085;28;20022;-74
2023/12/01 01:22:32;;;;;;;7.22;1.35;;;;;;;;;;1048045;28;20091;-73
2023/12/01 01:23:02;;;;;;;0.95;0.95;;;;;;;;;;1048133;28;20027;-73
2023/12/01 01:23:33;;;;;;;4.22;1.00;;;;;;;;;;1048498;28;20501;-73
2023/12/01 01:24:04;;;;;;;2.45;2.35;;;;;;;;;;1048141;28;20439;-73
2023/12/01 01:24:34;;;;;;;0.80;0.38;;;;;;;;;;1049821;28;20028;-73
2023/12/01 01:25:05;;;;;;;1.27;0.93;;;;;;;;;;1049402;28;20128;-73
2023/12/01 01:25:35;;;;;;;1.10;1.00;;;;;;;;;;1049553;28;20024;-73
2023/12/01 01:26:07;;;;;;;1.10;1.00;;;;;;;;;;1048674;28;20035;-73
2023/12/01 01:26:37;;;;;;;1.35;0.88;;;;;;;;;;1044175;28;20599;-73
2023/12/01 01:27:08;;;;;;;5.93;1.23;;;;;;;;;;1045949;28;20039;-73
2023/12/01 01:27:38;;;;;;;1.10;1.10;;;;;;;;;;1049984;28;20020;-73
2023/12/01 01:28:09;;;;;;;1.20;1.10;;;;;;;;;;1048319;28;20171;-73
2023/12/01 01:28:40;;;;;;;1.40;1.23;;;;;;;;;;1049306;28;20048;-73
2023/12/01 01:29:10;;;;;;;1.42;1.33;;;;;;;;;;1049442;28;20111;-73
2023/12/01 01:29:41;;;;;;;0.80;0.75;;;;;;;;;;1050222;28;20560;-73
2023/12/01 01:30:12;;;;;;;17.83;2.10;;;;;;;;;;1048255;28;20055;-73
2023/12/01 01:30:42;;;;;;;7.30;1.63;;;;;;;;;;1047923;28;20534;-73
2023/12/01 01:31:13;;;;;;;2.92;1.35;;;;;;;;;;1047618;28;20555;-73
2023/12/01 01:31:43;;;;;;;4.25;1.73;;;;;;;;;;1045284;28;20032;-73
2023/12/01 01:32:14;;;;;;;8.27;2.42;;;;;;;;;;1040569;28;20027;-73
2023/12/01 01:32:45;;;;;;;2.45;1.60;;;;;;;;;;1041625;28;20382;-73
2023/12/01 01:33:15;;;;;;;0.40;0.40;;;;;;;;;;1045090;28;20154;-73
2023/12/01 01:33:45;;;;;;;3.33;2.33;;;;;;;;;;1049296;28;20031;-73
2023/12/01 01:34:16;;;;;;;4.25;2.08;;;;;;;;;;1050443;28;20024;-73
2023/12/01 01:34:46;;;;;;;4.25;0.95;;;;;;;;;;1045776;28;20557;-73
2023/12/01 01:35:17;;;;;;;4.75;1.60;;;;;;;;;;1047433;28;20132;-73
2023/12/01 01:35:47;;;;;;;0.75;0.75;;;;;;;;;;1046135;28;20017;-73
2023/12/01 01:36:18;;;;;;;3.50;1.75;;;;;;;;;;1047023;28;20042;-73
2023/12/01 01:36:48;;;;;;;3.40;2.05;;;;;;;;;;1045502;28;20025;-73
2023/12/01 01:37:19;;;;;;;2.28;1.98;;;;;;;;;;1044794;28;20089;-73
2023/12/01 01:37:49;;;;;;;13.40;2.45;;;;;;;;;;1050975;28;20620;-73
2023/12/01 01:38:20;;;;;;;4.85;0.73;;;;;;;;;;1048969;28;20035;-73
2023/12/01 01:38:50;;;;;;;5.22;3.28;;;;;;;;;;1049803;28;20035;-73
2023/12/01 01:39:21;;;;;;;4.85;1.45;;;;;;;;;;1049900;28;20024;-73
2023/12/01 01:39:51;;;;;;;4.38;2.03;;;;;;;;;;1055222;22;20015;-72
2023/12/01 01:40:22;;;;;;;4.30;1.42;;;;;;;;;;1043605;28;20042;-73
2023/12/01 01:40:52;;;;;;;1.92;1.80;;;;;;;;;;1046545;28;20039;-74
2023/12/01 01:41:23;;;;;;;3.92;2.13;;;;;;;;;;1049547;28;20032;-74
2023/12/01 01:41:56;;;;;;;1.55;1.45;;;;;;;;;;1050223;28;20047;-73
2023/12/01 01:42:28;;;;;;;1.65;1.55;;;;;;;;;;1049208;28;20027;-73
2023/12/01 01:42:59;;;;;;;6.05;1.88;;;;;;;;;;1044913;28;20116;-73
2023/12/01 01:43:29;;;;;;;3.22;1.65;;;;;;;;;;1041302;28;20500;-73
2023/12/01 01:44:00;;;;;;;2.70;2.50;;;;;;;;;;1043164;28;20177;-73
2023/12/01 01:44:30;;;;;;;4.43;2.95;;;;;;;;;;1050308;23;20048;-73
2023/12/01 01:45:01;;;;;;;0.90;0.70;;;;;;;;;;1046759;28;20033;-73
2023/12/01 01:45:31;;;;;;;1.08;0.88;;;;;;;;;;1051116;28;20036;-73
2023/12/01 01:46:06;;;;;;;1.85;1.58;;;;;;;;;;1050621;28;20020;-74
2023/12/01 01:46:37;;;;;;;1.05;0.98;;;;;;;;;;1047315;28;20123;-73
2023/12/01 01:47:07;;;;;;;1.02;0.85;;;;;;;;;;1045081;28;20559;-73
2023/12/01 01:47:38;;;;;;;0.75;0.75;;;;;;;;;;1046669;28;20012;-73
2023/12/01 01:48:08;;;;;;;3.33;1.55;;;;;;;;;;1047207;28;20028;-73
2023/12/01 01:48:41;;;;;;;3.53;2.10;;;;;;;;;;1047090;28;20029;-73
2023/12/01 01:49:12;;;;;;;9.50;1.77;;;;;;;;;;1046405;28;20058;-73
2023/12/01 01:49:42;;;;;;;1.00;1.00;;;;;;;;;;1044435;28;20025;-73
2023/12/01 01:50:13;;;;;;;1.67;1.58;;;;;;;;;;1047590;28;20372;-73
2023/12/01 01:50:44;;;;;;;1.08;0.75;;;;;;;;;;1049300;28;20024;-73
2023/12/01 01:51:15;;;;;;;0.65;0.65;;;;;;;;;;1047735;28;20090;-73
2023/12/01 01:51:45;;;;;;;1.48;1.02;;;;;;;;;;1049005;28;20012;-73
2023/12/01 01:52:16;;;;;;;2.00;1.80;;;;;;;;;;1044680;28;20029;-73
2023/12/01 01:52:46;;;;;;;1.05;1.05;;;;;;;;;;1048036;28;20027;-73
2023/12/01 01:53:17;;;;;;;2.90;2.65;;;;;;;;;;1043336;28;20029;-73
2023/12/01 01:53:47;;;;;;;4.43;1.85;;;;;;;;;;1044179;28;20025;-73
2023/12/01 01:54:18;;;;;;;0.98;0.98;;;;;;;;;;1044023;28;20028;-73
2023/12/01 01:54:49;;;;;;;3.85;1.90;;;;;;;;;;1041020;28;20512;-73
2023/12/01 01:55:19;;;;;;;1.27;1.20;;;;;;;;;;1042520;28;20033;-73
2023/12/01 01:55:50;;;;;;;5.65;1.55;;;;;;;;;;1046061;28;20086;-73
2023/12/01 01:56:21;;;;;;;2.35;1.65;;;;;;;;;;1043008;28;20504;-73
2023/12/01 01:56:52;;;;;;;0.88;0.88;;;;;;;;;;1045526;28;20708;-73
2023/12/01 01:57:22;;;;;;;2.88;2.60;;;;;;;;;;1047955;28;20023;-73
2023/12/01 01:57:53;;;;;;;6.97;2.92;;;;;;;;;;1046869;28;20451;-73
2023/12/01 01:58:25;;;;;;;2.35;2.17;;;;;;;;;;1047599;28;20029;-73
2023/12/01 01:58:56;;;;;;;3.08;2.28;;;;;;;;;;1049551;28;20020;-73
2023/12/01 01:59:26;;;;;;;2.88;2.13;;;;;;;;;;1048386;28;20025;-73
2023/12/01 01:59:57;;;;;;;1.50;1.20;;;;;;;;;;1047689;28;20019;-72
2023/12/01 02:00:29;;;;;;;3.35;1.95;;;;;;;;;;1047404;28;20148;-72
2023/12/01 02:00:59;;;;;;;1.33;1.25;;;;;;;;;;1049251;28;20035;-72
2023/12/01 02:01:30;;;;;;;1.50;1.40;;;;;;;;;;1048714;28;20024;-72
2023/12/01 02:02:00;;;;;;;2.13;1.98;;;;;;;;;;1047796;28;20159;-72
2023/12/01 02:02:32;;;;;;;2.33;1.63;;;;;;;;;;1047377;28;20024;-72
2023/12/01 02:03:02;;;;;;;1.75;1.65;;;;;;;;;;1047103;28;20132;-72
2023/12/01 02:03:33;;;;;;;0.98;0.88;;;;;;;;;;1046903;28;20618;-72
2023/12/01 02:04:04;;;;;;;0.50;0.50;;;;;;;;;;1048050;28;20016;-72
2023/12/01 02:04:34;;;;;;;1.95;1.08;;;;;;;;;;1044905;28;20043;-72
2023/12/01 02:05:12;;;;;;;2.78;1.77;;;;;;;;;;1040277;28;20032;-72
2023/12/01 02:05:47;;;;;;;2.03;1.92;;;;;;;;;;1035843;28;20022;-72
2023/12/01 02:06:19;;;;;;;3.63;3.17;;;;;;;;;;1034048;28;20425;-72
2023/12/01 02:06:49;;;;;;;1.88;1.70;;;;;;;;;;1038330;28;20060;-73
2023/12/01 02:07:26;;;;;;;3.38;3.08;;;;;;;;;;1039443;28;20020;-72
2023/12/01 02:07:57;;;;;;;2.08;1.77;;;;;;;;;;1044712;28;20032;-72
2023/12/01 02:08:29;;;;;;;5.70;2.45;;;;;;;;;;1047406;28;20111;-71
2023/12/01 02:09:00;;;;;;;7.03;2.28;;;;;;;;;;1044634;28;20012;-72
2023/12/01 02:09:33;;;;;;;1.15;1.02;;;;;;;;;;1042829;28;20106;-71
2023/12/01 02:10:04;;;;;;;8.07;1.95;;;;;;;;;;1039739;28;20616;-73
2023/12/01 02:10:36;;;;;;;2.90;2.17;;;;;;;;;;1040809;28;20068;-73
2023/12/01 02:11:06;;;;;;;4.80;3.42;;;;;;;;;;1041760;28;20531;-72
2023/12/01 02:11:37;;;;;;;7.47;2.70;;;;;;;;;;1042298;28;20080;-71
2023/12/01 02:12:07;;;;;;;3.08;2.20;;;;;;;;;;1040021;28;20596;-71
2023/12/01 02:12:38;;;;;;;1.60;1.45;;;;;;;;;;1041659;28;20017;-73
2023/12/01 02:13:10;;;;;;;5.97;2.30;;;;;;;;;;1040031;28;20088;-73
2023/12/01 02:13:40;;;;;;;7.05;4.55;;;;;;;;;;1041332;28;20040;-73
2023/12/01 02:14:13;;;;;;;3.60;2.80;;;;;;;;;;1040762;28;20634;-73
2023/12/01 02:14:43;;;;;;;4.28;2.70;;;;;;;;;;1041754;28;20516;-73
2023/12/01 02:15:16;;;;;;;6.97;2.88;;;;;;;;;;1041799;28;20029;-73
2023/12/01 02:15:48;;;;;;;2.55;1.45;;;;;;;;;;1040673;28;20099;-73
2023/12/01 02:16:18;;;;;;;3.80;3.25;;;;;;;;;;1043797;28;20040;-71
2023/12/01 02:16:50;;;;;;;0.75;0.75;;;;;;;;;;1043757;28;20123;-73
2023/12/01 02:17:20;;;;;;;5.05;1.67;;;;;;;;;;1039004;28;20446;-71
2023/12/01 02:17:51;;;;;;;4.82;2.65;;;;;;;;;;1041601;28;20064;-73
2023/12/01 02:18:25;;;;;;;2.22;1.80;;;;;;;;;;1039982;28;20386;-73
2023/12/01 02:18:55;;;;;;;1.65;1.23;;;;;;;;;;1039974;28;20033;-73
2023/12/01 02:19:26;;;;;;;1.67;1.50;;;;;;;;;;1039970;28;20025;-73
2023/12/01 02:19:56;;;;;;;8.20;2.20;;;;;;;;;;1037708;28;20507;-73
2023/12/01 02:20:27;;;;;;;4.95;2.13;;;;;;;;;;1040219;28;20132;-73
2023/12/01 02:20:58;;;;;;;3.22;2.53;;;;;;;;;;1040215;28;20492;-73
2023/12/01 02:21:29;;;;;;;5.18;3.63;;;;;;;;;;1043241;28;20144;-71
2023/12/01 02:22:00;;;;;;;0.75;0.65;;;;;;;;;;1045629;28;20028;-73
2023/12/01 02:22:30;;;;;;;5.35;2.65;;;;;;;;;;1043167;28;20056;-73
2023/12/01 02:23:03;;;;;;;9.20;4.10;;;;;;;;;;1047514;28;20547;-73
2023/12/01 02:23:34;;;;;;;4.47;2.42;;;;;;;;;;1048252;28;20582;-73
2023/12/01 02:24:05;;;;;;;5.60;1.80;;;;;;;;;;1047064;28;20025;-73
2023/12/01 02:24:35;;;;;;;2.70;1.85;;;;;;;;;;1046047;28;20075;-73
2023/12/01 02:25:06;;;;;;;2.67;2.50;;;;;;;;;;1046256;28;20020;-73
2023/12/01 02:25:36;;;;;;;3.25;1.80;;;;;;;;;;1047927;28;20029;-73
2023/12/01 02:26:09;;;;;;;3.20;2.65;;;;;;;;;;1044799;28;20120;-74
2023/12/01 02:26:40;;;;;;;3.78;2.28;;;;;;;;;;1045411;28;20040;-72
2023/12/01 02:27:10;;;;;;;7.22;2.28;;;;;;;;;;1046172;28;20016;-73
2023/12/01 02:27:41;;;;;;;4.63;2.20;;;;;;;;;;1046040;28;20555;-73
2023/12/01 02:28:12;;;;;;;3.58;1.58;;;;;;;;;;1042699;28;20017;-73
2023/12/01 02:28:42;;;;;;;4.47;1.77;;;;;;;;;;1042968;28;20465;-73
2023/12/01 02:29:13;;;;;;;6.18;3.60;;;;;;;;;;1041806;28;20017;-73
2023/12/01 02:29:43;;;;;;;5.53;3.00;;;;;;;;;;1038830;28;20496;-73
2023/12/01 02:30:14;;;;;;;6.93;3.67;;;;;;;;;;1039078;28;20168;-73
2023/12/01 02:30:49;;;;;;;2.75;1.58;;;;;;;;;;1039296;28;20033;-73
2023/12/01 02:31:19;;;;;;;3.58;2.45;;;;;;;;;;1032910;28;20028;-73
2023/12/01 02:31:50;;;;;;;4.03;2.63;;;;;;;;;;1038646;28;20515;-73
2023/12/01 02:32:20;;;;;;;2.92;1.70;;;;;;;;;;1043007;28;20555;-71
2023/12/01 02:32:51;;;;;;;2.38;1.67;;;;;;;;;;1044373;28;20045;-73
2023/12/01 02:33:25;;;;;;;4.93;2.38;;;;;;;;;;1048339;28;20501;-73
2023/12/01 02:33:55;;;;;;;2.45;2.20;;;;;;;;;;1047056;28;20085;-73
2023/12/01 02:34:26;;;;;;;0.63;0.63;;;;;;;;;;1046342;28;20121;-73
2023/12/01 02:34:56;;;;;;;3.28;1.42;;;;;;;;;;1046040;28;20166;-73
2023/12/01 02:35:30;;;;;;;7.07;3.95;;;;;;;;;;1046133;28;20410;-73
2023/12/01 02:36:00;;;;;;;1.23;1.13;;;;;;;;;;1049414;28;20122;-73
2023/12/01 02:36:31;;;;;;;2.92;2.70;;;;;;;;;;1045276;28;20024;-72
2023/12/01 02:37:01;;;;;;;7.57;4.85;;;;;;;;;;1045612;28;20036;-72
2023/12/01 02:37:32;;;;;;;5.93;3.55;;;;;;;;;;1040682;28;20032;-73
2023/12/01 02:38:02;;;;;;;1.80;1.70;;;;;;;;;;1042252;28;20028;-73
2023/12/01 02:38:33;;;;;;;5.38;2.03;;;;;;;;;;1045316;28;20021;-73
2023/12/01 02:39:03;;;;;;;4.35;3.22;;;;;;;;;;1040385;28;20017;-73
2023/12/01 02:39:36;;;;;;;2.35;1.42;;;;;;;;;;1044178;28;20027;-73
2023/12/01 02:40:15;;;;;;;1.98;0.98;;;;;;;;;;1039377;28;20036;-74
2023/12/01 02:40:52;;;;;;;4.88;3.58;;;;;;;;;;1039003;28;20415;-73
2023/12/01 02:41:22;;;;;;;1.48;1.30;;;;;;;;;;1041798;28;20035;-73
2023/12/01 02:41:53;;;;;;;3.10;2.33;;;;;;;;;;1042245;28;20177;-73
2023/12/01 02:42:23;;;;;;;2.88;2.58;;;;;;;;;;1039376;28;20033;-73
2023/12/01 02:42:54;;;;;;;6.78;4.10;;;;;;;;;;1043209;28;20036;-73
2023/12/01 02:43:25;;;;;;;2.45;1.20;;;;;;;;;;1044217;28;20083;-73
2023/12/01 02:43:55;;;;;;;6.18;4.97;;;;;;;;;;1037321;28;20158;-73
2023/12/01 02:44:26;;;;;;;2.58;2.20;;;;;;;;;;1042212;28;20130;-73
2023/12/01 02:44:56;;;;;;;5.05;3.40;;;;;;;;;;1043439;28;20027;-73
2023/12/01 02:45:28;;;;;;;3.05;2.45;;;;;;;;;;1043250;28;20032;-73
2023/12/01 02:45:59;;;;;;;2.08;1.38;;;;;;;;;;1046474;28;20449;-73
2023/12/01 02:46:29;;;;;;;5.78;3.05;;;;;;;;;;1044854;28;20025;-74
2023/12/01 02:47:00;;;;;;;3.72;3.42;;;;;;;;;;1047042;28;20480;-74
2023/12/01 02:47:30;;;;;;;4.68;2.30;;;;;;;;;;1046467;28;20373;-73
2023/12/01 02:48:01;;;;;;;3.70;2.60;;;;;;;;;;1043361;28;20454;-73
2023/12/01 02:48:31;;;;;;;5.18;2.30;;;;;;;;;;1039757;28;20581;-73
2023/12/01 02:49:02;;;;;;;7.70;3.30;;;;;;;;;;1044931;28;20115;-73
2023/12/01 02:49:32;;;;;;;4.63;3.22;;;;;;;;;;1044368;28;20632;-73
2023/12/01 02:50:03;;;;;;;2.63;2.40;;;;;;;;;;1042364;28;20477;-73
2023/12/01 02:50:34;;;;;;;1.33;1.25;;;;;;;;;;1043235;28;20115;-73
2023/12/01 02:51:05;;;;;;;1.35;0.93;;;;;;;;;;1039913;28;20021;-73
2023/12/01 02:51:35;;;;;;;2.75;1.55;;;;;;;;;;1035124;28;20021;-73
2023/12/01 02:52:05;;;;;;;9.10;2.42;;;;;;;;;;1037085;28;20036;-73
2023/12/01 02:52:39;;;;;;;4.38;3.95;;;;;;;;;;1038486;28;20024;-73
2023/12/01 02:53:09;;;;;;;18.88;2.25;;;;;;;;;;1036760;28;20137;-73
2023/12/01 02:53:40;;;;;;;2.30;1.75;;;;;;;;;;1042042;28;20345;-73
2023/12/01 02:54:10;;;;;;;3.65;1.90;;;;;;;;;;1041222;28;20074;-73
2023/12/01 02:54:41;;;;;;;1.30;1.20;;;;;;;;;;1042002;28;20107;-73
2023/12/01 02:55:11;;;;;;;3.00;1.90;;;;;;;;;;1038493;28;20038;-73
2023/12/01 02:55:42;;;;;;;3.80;2.15;;;;;;;;;;1038515;28;20016;-73
2023/12/01 02:56:13;;;;;;;5.15;2.80;;;;;;;;;;1035613;28;20029;-73
2023/12/01 02:56:43;;;;;;;7.22;1.88;;;;;;;;;;1035999;28;20425;-73
2023/12/01 02:57:14;;;;;;;18.70;4.85;;;;;;;;;;1041690;28;20051;-73
2023/12/01 02:57:45;;;;;;;3.58;2.90;;;;;;;;;;1047791;28;20398;-71
2023/12/01 02:58:15;;;;;;;1.02;0.95;;;;;;;;;;1039668;28;20033;-71
2023/12/01 02:58:46;;;;;;;3.58;2.40;;;;;;;;;;1040974;28;20623;-73
2023/12/01 02:59:16;;;;;;;10.00;4.97;;;;;;;;;;1035501;28;20040;-74
2023/12/01 02:59:47;;;;;;;0.90;0.90;;;;;;;;;;1034015;28;20171;-71
2023/12/01 03:00:18;;;;;;;4.53;1.55;;;;;;;;;;1029449;28;20033;-73
2023/12/01 03:00:49;;;;;;;6.80;2.10;;;;;;;;;;1033089;28;20022;-71
2023/12/01 03:01:19;;;;;;;3.72;2.85;;;;;;;;;;1041126;28;20558;-72
2023/12/01 03:01:50;;;;;;;11.20;2.70;;;;;;;;;;1039751;28;20078;-73
2023/12/01 03:02:21;;;;;;;4.65;4.25;;;;;;;;;;1044435;28;20043;-73
2023/12/01 03:02:51;;;;;;;6.45;3.47;;;;;;;;;;1046071;28;20027;-73
2023/12/01 03:03:22;;;;;;;5.95;4.60;;;;;;;;;;1043321;28;20424;-74
2023/12/01 03:03:52;;;;;;;6.95;3.60;;;;;;;;;;1043746;28;20035;-73
2023/12/01 03:04:23;;;;;;;14.73;5.07;;;;;;;;;;1043191;28;20017;-73
2023/12/01 03:04:54;;;;;;;7.80;2.85;;;;;;;;;;1045091;28;20086;-73